Time;durP1;ratioP1;P1;durP2;ratioP2;P2;SDS_P1;SDS_P2;PMS_P1;PMS_P2;Temp;Humidity;BMP_temperature;BMP_pressure;BME280_temperature;BME280_humidity;BME280_pressure;Samples;Min_cycle;Max_cycle;Signal;HPM_P1;HPM_P2
2022/08/09 00:00:44;;;;;;;2.25;2.03;;;23.30;91.40;;;;;;6099980;28;88362;-62
2022/08/09 00:03:48;;;;;;;2.30;2.10;;;23.30;91.40;;;;;;6097106;28;89245;-61
2022/08/09 00:06:50;;;;;;;2.88;2.22;;;23.20;91.30;;;;;;6110335;28;89410;-62
2022/08/09 00:09:52;;;;;;;2.33;2.13;;;23.30;91.20;;;;;;6094851;28;90253;-62
2022/08/09 00:12:54;;;;;;;2.42;2.22;;;23.20;91.10;;;;;;6104709;28;89158;-62
2022/08/09 00:15:56;;;;;;;2.50;2.20;;;23.20;90.90;;;;;;6111893;28;88929;-61
2022/08/09 00:19:00;;;;;;;3.10;2.55;;;23.20;91.00;;;;;;6111134;28;89328;-62
2022/08/09 00:22:02;;;;;;;2.63;2.42;;;23.20;90.80;;;;;;6094989;28;89107;-62
2022/08/09 00:25:04;;;;;;;2.50;2.30;;;23.20;90.80;;;;;;6109995;28;89361;-62
2022/08/09 00:28:06;;;;;;;2.30;2.10;;;23.20;90.80;;;;;;6103279;28;89111;-61
2022/08/09 00:31:09;;;;;;;2.55;2.30;;;23.20;90.70;;;;;;6108216;28;88304;-62
2022/08/09 00:34:12;;;;;;;3.05;2.22;;;23.20;90.70;;;;;;6107278;28;89065;-62
2022/08/09 00:37:14;;;;;;;2.50;2.30;;;23.20;90.60;;;;;;6106235;28;89134;-61
2022/08/09 00:40:16;;;;;;;2.40;2.20;;;23.20;90.60;;;;;;6109741;28;90042;-62
2022/08/09 00:43:18;;;;;;;2.47;2.22;;;23.20;90.60;;;;;;6110250;28;89006;-62
2022/08/09 00:46:20;;;;;;;3.15;2.40;;;23.20;90.70;;;;;;6107662;28;87978;-61
2022/08/09 00:49:24;;;;;;;2.40;2.20;;;23.20;90.80;;;;;;6098132;28;89147;-61
2022/08/09 00:52:28;;;;;;;3.67;2.80;;;23.20;90.90;;;;;;6103768;28;89162;-62
2022/08/09 00:55:30;;;;;;;2.10;1.90;;;23.20;90.90;;;;;;6100393;28;87997;-61
2022/08/09 00:58:34;;;;;;;2.00;1.80;;;23.20;91.00;;;;;;6106037;28;89079;-62
2022/08/09 01:01:40;;;;;;;3.17;2.30;;;23.20;90.80;;;;;;6108117;28;88376;-61
2022/08/09 01:04:53;;;;;;;2.10;2.00;;;23.20;90.70;;;;;;6110068;28;89125;-61
2022/08/09 01:08:04;;;;;;;2.47;2.28;;;23.20;90.50;;;;;;6099767;28;89116;-61
2022/08/09 01:11:17;;;;;;;2.42;2.22;;;23.20;90.50;;;;;;6107311;28;90130;-61
2022/08/09 01:14:27;;;;;;;2.90;2.38;;;23.20;90.40;;;;;;6108354;28;89008;-62
2022/08/09 01:17:34;;;;;;;2.70;2.30;;;23.10;90.40;;;;;;6108388;28;89099;-62
2022/08/09 01:20:48;;;;;;;2.53;2.30;;;23.10;90.40;;;;;;6108229;28;89630;-62
2022/08/09 01:23:58;;;;;;;2.60;2.40;;;23.10;90.40;;;;;;6104360;28;89805;-61
2022/08/09 01:27:05;;;;;;;2.40;2.20;;;23.10;90.40;;;;;;6110457;28;88009;-62
2022/08/09 01:30:09;;;;;;;2.50;2.30;;;23.10;90.40;;;;;;6087858;28;89081;-61
2022/08/09 01:33:12;;;;;;;2.80;2.40;;;23.10;90.40;;;;;;6108000;28;88320;-62
2022/08/09 01:36:20;;;;;;;2.22;2.03;;;23.10;90.40;;;;;;6108005;28;89054;-61
2022/08/09 01:39:24;;;;;;;2.38;2.20;;;23.10;90.50;;;;;;6107853;28;89126;-62
2022/08/09 01:42:30;;;;;;;2.55;2.28;;;23.20;90.60;;;;;;6107147;28;89767;-61
2022/08/09 01:45:33;;;;;;;2.70;2.42;;;23.10;90.70;;;;;;6103491;28;88723;-61
2022/08/09 01:48:36;;;;;;;2.60;2.40;;;23.10;90.80;;;;;;6100417;28;89072;-61
2022/08/09 01:51:41;;;;;;;2.70;2.50;;;23.10;90.70;;;;;;6098205;28;89042;-62
2022/08/09 01:54:47;;;;;;;2.60;2.30;;;23.10;90.70;;;;;;6099738;28;87974;-62
2022/08/09 01:57:52;;;;;;;3.38;2.50;;;23.10;90.50;;;;;;6100377;28;89049;-62
2022/08/09 02:00:56;;;;;;;2.53;2.33;;;23.10;90.40;;;;;;6102922;28;87810;-62
2022/08/09 02:03:59;;;;;;;2.50;2.30;;;23.10;90.40;;;;;;6101824;28;88724;-61
2022/08/09 02:07:08;;;;;;;3.47;2.70;;;23.10;90.40;;;;;;6103121;28;89012;-61
2022/08/09 02:10:13;;;;;;;3.00;2.55;;;23.10;90.20;;;;;;6107855;28;89160;-61
2022/08/09 02:13:18;;;;;;;3.20;2.70;;;23.10;90.30;;;;;;6091629;28;90273;-61
2022/08/09 02:16:20;;;;;;;2.80;2.60;;;23.10;90.20;;;;;;6105789;28;87045;-61
2022/08/09 02:19:22;;;;;;;2.65;2.42;;;23.10;90.30;;;;;;6088968;28;87965;-62
2022/08/09 02:22:30;;;;;;;2.70;2.50;;;23.00;90.20;;;;;;6098197;28;89005;-61
2022/08/09 02:25:35;;;;;;;2.65;2.30;;;23.10;90.10;;;;;;6102069;28;89192;-61
2022/08/09 02:28:41;;;;;;;3.50;2.88;;;23.00;90.20;;;;;;6106623;28;89416;-61
2022/08/09 02:31:46;;;;;;;2.95;2.65;;;23.00;90.30;;;;;;6086301;28;89336;-62
2022/08/09 02:34:54;;;;;;;2.80;2.50;;;23.00;90.30;;;;;;6109074;28;87447;-61
2022/08/09 02:37:58;;;;;;;2.63;2.42;;;23.10;90.40;;;;;;6105852;28;89040;-62
2022/08/09 02:41:09;;;;;;;2.63;2.42;;;23.00;90.40;;;;;;6096013;28;89042;-62
2022/08/09 02:44:19;;;;;;;2.50;2.30;;;23.00;90.30;;;;;;6107853;28;90006;-62
2022/08/09 02:47:23;;;;;;;3.17;2.72;;;23.00;90.20;;;;;;6109304;28;89033;-62
2022/08/09 02:50:29;;;;;;;3.00;2.70;;;23.00;90.10;;;;;;6108582;28;89179;-62
2022/08/09 02:53:36;;;;;;;2.55;2.35;;;23.00;90.00;;;;;;6108519;28;89108;-61
2022/08/09 02:56:41;;;;;;;3.30;2.58;;;23.00;90.40;;;;;;6090026;28;89093;-61
2022/08/09 02:59:45;;;;;;;2.80;2.60;;;23.00;89.90;;;;;;6102653;28;89209;-61
2022/08/09 03:02:51;;;;;;;3.42;2.95;;;23.00;89.80;;;;;;6105092;28;88890;-62
2022/08/09 03:05:56;;;;;;;3.20;2.90;;;23.00;89.90;;;;;;6107656;28;88373;-62
2022/08/09 03:09:00;;;;;;;2.80;2.60;;;23.00;89.70;;;;;;6109211;28;89119;-62
2022/08/09 03:12:03;;;;;;;4.82;2.70;;;23.00;89.70;;;;;;6097266;28;89050;-62
2022/08/09 03:15:09;;;;;;;3.00;2.80;;;22.90;89.60;;;;;;6097202;28;90144;-61
2022/08/09 03:18:12;;;;;;;2.70;2.50;;;23.00;89.80;;;;;;6103424;28;89191;-61
2022/08/09 03:21:16;;;;;;;3.33;2.60;;;23.00;90.00;;;;;;6094691;28;89337;-61
2022/08/09 03:24:19;;;;;;;2.85;2.65;;;23.00;90.00;;;;;;6103107;28;89176;-61
2022/08/09 03:27:23;;;;;;;2.80;2.60;;;22.90;90.10;;;;;;6098737;28;89343;-61
2022/08/09 03:30:26;;;;;;;4.57;3.28;;;22.90;90.10;;;;;;6106446;28;89827;-61
2022/08/09 03:33:30;;;;;;;3.08;2.78;;;22.90;90.10;;;;;;6107605;28;89031;-61
2022/08/09 03:36:32;;;;;;;2.92;2.63;;;23.00;90.00;;;;;;6106256;28;90919;-61
2022/08/09 03:39:34;;;;;;;3.47;2.70;;;23.00;89.90;;;;;;6100473;28;89121;-61
2022/08/09 03:42:36;;;;;;;2.90;2.70;;;22.90;89.50;;;;;;6087692;28;89309;-62
2022/08/09 03:45:40;;;;;;;3.60;2.72;;;22.90;89.30;;;;;;6106188;28;90060;-61
2022/08/09 03:48:42;;;;;;;4.72;2.75;;;22.90;89.20;;;;;;6101284;28;89202;-61
2022/08/09 03:51:47;;;;;;;3.58;2.60;;;22.90;89.10;;;;;;6099074;28;89063;-61
2022/08/09 03:54:52;;;;;;;2.72;2.53;;;22.90;88.90;;;;;;6096325;28;89408;-61
2022/08/09 03:57:55;;;;;;;3.30;2.58;;;22.90;88.90;;;;;;6096255;28;89744;-62
2022/08/09 04:00:59;;;;;;;2.70;2.50;;;22.90;88.80;;;;;;6109739;28;89021;-61
2022/08/09 04:04:03;;;;;;;3.00;2.70;;;22.90;88.80;;;;;;6104834;28;89100;-61
2022/08/09 04:07:05;;;;;;;4.13;3.20;;;22.90;88.60;;;;;;6084702;28;88709;-61
2022/08/09 04:10:08;;;;;;;3.25;2.85;;;22.90;88.50;;;;;;6096316;28;89007;-62
2022/08/09 04:13:10;;;;;;;3.20;2.90;;;22.90;88.70;;;;;;6082283;28;89134;-62
2022/08/09 04:16:13;;;;;;;2.70;2.50;;;22.90;89.10;;;;;;6096567;28;90174;-62
2022/08/09 04:19:15;;;;;;;2.70;2.50;;;22.90;89.30;;;;;;6097850;28;88022;-61
2022/08/09 04:22:17;;;;;;;2.90;2.70;;;22.90;89.30;;;;;;6110671;28;89105;-62
2022/08/09 04:25:19;;;;;;;3.45;2.65;;;22.90;89.40;;;;;;6106440;28;89113;-62
2022/08/09 04:28:22;;;;;;;3.33;2.80;;;22.90;89.30;;;;;;6088183;28;89090;-61
2022/08/09 04:31:25;;;;;;;3.45;3.15;;;22.90;89.10;;;;;;6089591;28;89069;-61
2022/08/09 04:34:28;;;;;;;2.78;2.58;;;22.90;88.90;;;;;;6110971;28;89290;-61
2022/08/09 04:37:30;;;;;;;3.13;2.80;;;22.90;88.90;;;;;;6111219;28;88308;-61
2022/08/09 04:43:48;;;;;;;3.40;3.10;;;22.90;88.60;;;;;;6104605;28;88612;-61
2022/08/09 04:46:52;;;;;;;3.92;3.20;;;22.80;88.50;;;;;;6104497;28;90031;-61
2022/08/09 04:49:55;;;;;;;3.70;3.28;;;22.90;88.60;;;;;;6084251;28;89142;-61
2022/08/09 04:52:57;;;;;;;3.35;3.05;;;22.90;88.90;;;;;;6100571;28;89215;-62
2022/08/09 04:55:59;;;;;;;4.30;3.40;;;22.90;88.80;;;;;;6093401;28;89059;-61
2022/08/09 04:59:01;;;;;;;3.97;3.22;;;22.90;89.20;;;;;;6093661;28;87929;-61
2022/08/09 05:02:05;;;;;;;3.83;3.30;;;22.90;89.30;;;;;;6093349;28;89339;-61
2022/08/09 05:05:08;;;;;;;3.35;3.05;;;22.90;89.90;;;;;;6098388;28;89448;-61
2022/08/09 05:08:10;;;;;;;3.85;3.03;;;22.90;89.90;;;;;;6090309;28;88672;-61
2022/08/09 05:11:12;;;;;;;3.63;3.30;;;22.90;89.90;;;;;;6089118;28;89147;-61
2022/08/09 05:14:14;;;;;;;3.58;3.28;;;22.90;90.00;;;;;;6094194;28;88043;-61
2022/08/09 05:17:17;;;;;;;3.60;3.05;;;22.90;90.10;;;;;;6091356;28;89003;-61
2022/08/09 05:20:21;;;;;;;3.83;3.20;;;22.90;90.20;;;;;;6093481;28;89059;-61
2022/08/09 05:23:23;;;;;;;3.88;3.08;;;22.90;90.30;;;;;;6089919;28;89407;-61
2022/08/09 05:26:25;;;;;;;3.13;2.80;;;22.90;90.40;;;;;;6088456;28;89471;-61
2022/08/09 05:29:27;;;;;;;4.75;3.17;;;22.90;90.40;;;;;;6093314;28;89106;-61
2022/08/09 05:32:31;;;;;;;4.50;3.05;;;22.90;90.60;;;;;;6093308;28;89049;-61
2022/08/09 05:35:33;;;;;;;3.80;3.40;;;22.90;90.60;;;;;;6098232;28;88759;-61
2022/08/09 05:38:35;;;;;;;3.70;3.13;;;22.90;90.90;;;;;;6097165;28;88233;-60
2022/08/09 05:41:37;;;;;;;3.50;3.20;;;22.90;91.10;;;;;;6098772;28;89333;-60
2022/08/09 05:44:39;;;;;;;5.63;4.25;;;22.90;91.30;;;;;;6091541;28;89012;-60
2022/08/09 05:47:43;;;;;;;4.25;3.53;;;22.90;91.50;;;;;;6095018;28;90282;-61
2022/08/09 05:50:45;;;;;;;4.32;3.97;;;22.90;91.60;;;;;;6101481;28;88992;-61
2022/08/09 05:53:48;;;;;;;3.92;3.33;;;22.90;91.70;;;;;;6096842;28;89197;-61
2022/08/09 05:56:50;;;;;;;4.05;3.70;;;22.90;91.80;;;;;;6107860;28;88180;-61
2022/08/09 05:59:52;;;;;;;4.10;3.67;;;22.90;91.80;;;;;;6106109;28;89996;-61
2022/08/09 06:02:57;;;;;;;6.07;4.13;;;22.90;91.90;;;;;;6105504;28;89007;-61
2022/08/09 06:05:59;;;;;;;3.95;3.65;;;22.90;92.10;;;;;;6106563;28;89128;-61
2022/08/09 06:09:01;;;;;;;3.85;3.55;;;22.90;92.10;;;;;;6103077;28;88701;-61
2022/08/09 06:12:04;;;;;;;4.03;3.35;;;22.90;92.20;;;;;;6099067;28;89110;-61
2022/08/09 06:15:07;;;;;;;4.32;3.92;;;23.00;92.30;;;;;;6093289;28;89232;-61
2022/08/09 06:18:10;;;;;;;4.55;4.15;;;22.90;92.50;;;;;;6101256;28;90001;-61
2022/08/09 06:21:12;;;;;;;5.80;3.70;;;22.90;92.70;;;;;;6104598;28;89082;-61
2022/08/09 06:24:14;;;;;;;4.90;4.40;;;22.90;92.70;;;;;;6106217;28;87940;-61
2022/08/09 06:27:16;;;;;;;4.18;3.78;;;22.90;93.20;;;;;;6097473;28;89196;-61
2022/08/09 06:30:19;;;;;;;4.65;3.90;;;23.00;93.10;;;;;;6107819;28;88139;-61
2022/08/09 06:33:22;;;;;;;4.60;4.13;;;22.90;93.20;;;;;;6103982;28;89072;-61
2022/08/09 06:36:24;;;;;;;4.80;4.30;;;22.90;94.00;;;;;;6105416;28;89146;-61
2022/08/09 06:39:27;;;;;;;4.47;4.07;;;22.90;94.30;;;;;;6097954;28;88321;-61
2022/08/09 06:42:29;;;;;;;5.13;4.60;;;22.90;94.60;;;;;;6095402;28;89158;-61
2022/08/09 06:45:31;;;;;;;4.85;4.38;;;22.90;95.30;;;;;;6105785;28;88937;-61
2022/08/09 06:48:39;;;;;;;4.30;3.90;;;22.90;95.70;;;;;;6095683;28;89919;-61
2022/08/09 06:51:41;;;;;;;4.25;3.63;;;22.90;94.70;;;;;;6104376;28;88981;-61
2022/08/09 06:54:43;;;;;;;3.90;3.60;;;22.90;94.40;;;;;;6103587;28;88973;-61
2022/08/09 06:57:45;;;;;;;5.43;3.70;;;22.90;94.50;;;;;;6095055;28;89027;-61
2022/08/09 07:00:47;;;;;;;4.22;3.80;;;22.90;93.80;;;;;;6095591;28;89418;-62
2022/08/09 07:03:51;;;;;;;3.70;3.40;;;22.90;93.50;;;;;;6108144;28;89144;-61
2022/08/09 07:06:53;;;;;;;3.80;3.20;;;22.80;93.60;;;;;;6094245;28;89060;-61
2022/08/09 07:09:55;;;;;;;3.55;3.25;;;22.80;93.30;;;;;;6096502;28;88432;-62
2022/08/09 07:12:57;;;;;;;4.78;3.65;;;22.80;93.60;;;;;;6094093;28;89162;-61
2022/08/09 07:15:59;;;;;;;4.38;3.60;;;22.80;93.30;;;;;;6101073;28;89256;-61
2022/08/09 07:19:03;;;;;;;3.90;3.42;;;22.80;92.90;;;;;;6097830;28;89984;-61
2022/08/09 07:22:05;;;;;;;3.40;3.05;;;22.80;92.60;;;;;;6102284;28;90402;-61
2022/08/09 07:25:08;;;;;;;4.03;3.40;;;22.70;92.90;;;;;;6099385;28;89017;-61
2022/08/09 07:28:11;;;;;;;3.40;3.10;;;22.70;92.80;;;;;;6100338;28;89607;-61
2022/08/09 07:31:13;;;;;;;3.78;3.00;;;22.70;92.80;;;;;;6106679;28;89387;-61
2022/08/09 07:34:16;;;;;;;3.40;3.08;;;22.70;92.60;;;;;;6106721;28;89163;-62
2022/08/09 07:37:18;;;;;;;3.92;3.03;;;22.70;92.00;;;;;;6095237;28;89399;-61
2022/08/09 07:40:21;;;;;;;3.70;3.17;;;22.70;91.80;;;;;;6103342;28;88444;-61
2022/08/09 07:43:23;;;;;;;3.47;2.90;;;22.60;91.60;;;;;;6107844;28;89419;-61
2022/08/09 07:46:25;;;;;;;4.38;3.42;;;22.60;91.30;;;;;;6106664;28;89309;-61
2022/08/09 07:49:29;;;;;;;4.35;3.38;;;22.60;91.60;;;;;;6106884;28;90458;-61
2022/08/09 07:52:31;;;;;;;3.50;3.20;;;22.60;92.00;;;;;;6098576;28;89198;-61
2022/08/09 07:55:33;;;;;;;3.22;2.92;;;22.60;92.20;;;;;;6102031;28;89256;-61
2022/08/09 07:58:35;;;;;;;4.50;3.40;;;22.60;92.30;;;;;;6104834;28;88984;-61
2022/08/09 08:01:37;;;;;;;4.07;3.42;;;22.60;92.40;;;;;;6101662;28;89129;-61
2022/08/09 08:04:40;;;;;;;4.40;3.72;;;22.60;92.10;;;;;;6104646;28;89068;-61
2022/08/09 08:07:42;;;;;;;4.50;3.10;;;22.60;92.10;;;;;;6104637;28;88289;-62
2022/08/09 08:10:44;;;;;;;5.68;3.60;;;22.60;92.40;;;;;;6099157;28;88455;-62
2022/08/09 08:13:46;;;;;;;4.15;3.28;;;22.60;91.70;;;;;;6099493;28;88998;-61
2022/08/09 08:16:48;;;;;;;3.83;3.00;;;22.60;91.40;;;;;;6111335;28;89454;-61
2022/08/09 08:19:52;;;;;;;3.17;2.80;;;22.60;91.60;;;;;;6110570;28;90038;-61
2022/08/09 08:22:54;;;;;;;3.65;3.30;;;22.60;92.00;;;;;;6102055;28;88944;-62
2022/08/09 08:25:56;;;;;;;3.33;3.03;;;22.50;91.70;;;;;;6104809;28;89115;-61
2022/08/09 08:28:58;;;;;;;4.00;3.30;;;22.60;91.90;;;;;;6104491;28;89002;-61
2022/08/09 08:32:00;;;;;;;4.03;3.45;;;22.60;92.00;;;;;;6103367;28;88902;-61
2022/08/09 08:35:04;;;;;;;4.78;3.30;;;22.60;92.30;;;;;;6108162;28;89037;-61
2022/08/09 08:38:06;;;;;;;4.93;2.88;;;22.60;92.30;;;;;;6106731;28;89114;-61
2022/08/09 08:41:09;;;;;;;6.43;3.15;;;22.60;92.10;;;;;;6097120;28;88351;-61
2022/08/09 08:44:13;;;;;;;4.50;2.90;;;22.60;92.00;;;;;;6096836;28;89115;-61
2022/08/09 08:47:15;;;;;;;4.55;3.05;;;22.60;92.00;;;;;;6097505;28;89128;-61
2022/08/09 08:50:19;;;;;;;3.67;3.13;;;22.60;91.30;;;;;;6109008;28;89872;-62
2022/08/09 08:53:22;;;;;;;4.88;2.88;;;22.60;91.80;;;;;;6087733;28;88806;-62
2022/08/09 08:56:24;;;;;;;3.95;2.70;;;22.60;91.40;;;;;;6108376;28;89550;-62
2022/08/09 08:59:26;;;;;;;4.28;2.97;;;22.60;91.30;;;;;;6105946;28;89264;-63
2022/08/09 09:02:29;;;;;;;3.88;3.15;;;22.70;91.20;;;;;;6107322;28;89073;-61
2022/08/09 09:05:34;;;;;;;4.05;2.80;;;22.60;91.20;;;;;;6086561;28;89074;-62
2022/08/09 09:08:38;;;;;;;4.20;2.70;;;22.70;90.70;;;;;;6099304;28;88067;-63
2022/08/09 09:11:42;;;;;;;2.72;2.50;;;22.70;90.10;;;;;;6087274;28;88315;-62
2022/08/09 09:14:45;;;;;;;2.95;2.58;;;22.70;90.50;;;;;;6099425;28;89041;-61
2022/08/09 09:17:47;;;;;;;2.63;2.20;;;22.70;90.80;;;;;;6098400;28;89285;-62
2022/08/09 09:20:51;;;;;;;2.33;2.08;;;22.70;89.40;;;;;;6104149;28;90242;-62
2022/08/09 09:23:53;;;;;;;2.97;2.42;;;22.70;88.40;;;;;;6105148;28;88008;-61
2022/08/09 09:26:56;;;;;;;3.28;2.22;;;22.70;87.40;;;;;;6105859;28;89399;-62
2022/08/09 09:30:08;;;;;;;3.85;2.35;;;22.70;88.40;;;;;;6089028;28;89455;-61
2022/08/09 09:33:12;;;;;;;3.38;2.38;;;22.70;87.40;;;;;;6109429;28;89064;-62
2022/08/09 09:36:16;;;;;;;4.85;2.67;;;22.70;85.00;;;;;;6100694;28;89143;-62
2022/08/09 09:39:18;;;;;;;3.88;2.15;;;22.70;86.10;;;;;;6108878;28;89453;-62
2022/08/09 09:42:24;;;;;;;2.97;1.90;;;22.70;86.10;;;;;;6100207;28;88215;-62
2022/08/09 09:45:26;;;;;;;2.78;2.05;;;22.70;84.10;;;;;;6107473;28;89441;-61
2022/08/09 09:48:29;;;;;;;3.40;2.25;;;22.70;82.10;;;;;;6106498;28;88074;-62
2022/08/09 09:51:34;;;;;;;5.10;2.00;;;22.70;83.50;;;;;;6103673;28;90439;-63
2022/08/09 09:54:38;;;;;;;3.15;1.70;;;22.70;82.90;;;;;;6100687;28;92325;-62
2022/08/09 09:57:40;;;;;;;2.22;2.00;;;22.70;82.40;;;;;;6098626;28;89058;-62
2022/08/09 10:00:44;;;;;;;4.70;2.30;;;22.70;81.80;;;;;;6103184;28;89405;-62
2022/08/09 10:03:48;;;;;;;3.90;2.40;;;22.70;81.10;;;;;;6100538;28;89128;-62
2022/08/09 10:06:51;;;;;;;4.63;2.33;;;22.70;81.60;;;;;;6096762;28;89172;-62
2022/08/09 10:09:55;;;;;;;2.45;2.00;;;22.70;82.90;;;;;;6082755;28;89135;-63
2022/08/09 10:12:57;;;;;;;4.25;2.90;;;22.70;82.50;;;;;;6094115;28;88699;-62
2022/08/09 10:15:59;;;;;;;11.07;4.78;;;22.70;82.20;;;;;;6102706;28;89161;-61
2022/08/09 10:19:04;;;;;;;6.38;3.30;;;22.70;84.10;;;;;;6093355;28;88797;-61
2022/08/09 10:22:07;;;;;;;3.58;2.75;;;22.80;83.50;;;;;;6097326;28;90074;-61
2022/08/09 10:25:10;;;;;;;4.05;2.53;;;22.80;82.50;;;;;;6105002;28;89096;-62
2022/08/09 10:28:13;;;;;;;2.25;2.03;;;22.90;82.20;;;;;;6090010;28;89469;-61
2022/08/09 10:31:16;;;;;;;3.50;2.50;;;22.90;81.60;;;;;;6087645;28;90858;-63
2022/08/09 10:34:18;;;;;;;2.63;2.10;;;22.90;82.70;;;;;;6106089;28;89116;-63
2022/08/09 10:40:24;;;;;;;2.17;1.98;;;22.90;81.80;;;;;;6324882;27;80178;-63
2022/08/09 10:43:27;;;;;;;4.50;1.95;;;22.90;81.30;;;;;;6302524;27;82399;-63
2022/08/09 10:46:47;;;;;;;4.72;2.00;;;22.90;81.80;;;;;;6302557;27;82368;-62
2022/08/09 10:49:56;;;;;;;2.78;2.35;;;22.90;81.00;;;;;;6304312;27;82582;-62
2022/08/09 10:53:08;;;;;;;2.78;2.22;;;22.90;81.50;;;;;;6305822;27;82348;-62
2022/08/09 10:56:21;;;;;;;3.70;2.30;;;22.90;80.60;;;;;;6305471;27;82348;-62
2022/08/09 10:59:31;;;;;;;3.55;2.20;;;23.00;80.60;;;;;;6304899;27;81652;-62
2022/08/09 11:02:37;;;;;;;4.10;2.30;;;22.90;81.80;;;;;;6304727;27;82265;-62
2022/08/09 11:05:39;;;;;;;5.63;2.67;;;22.90;81.70;;;;;;6302375;27;82384;-62
2022/08/09 11:08:42;;;;;;;5.05;2.53;;;22.90;80.20;;;;;;6304353;27;82307;-62
2022/08/09 11:12:12;;;;;;;2.95;2.00;;;22.90;80.00;;;;;;6292459;27;82370;-62
2022/08/09 11:15:24;;;;;;;2.40;2.10;;;22.90;80.60;;;;;;6294487;27;82285;-63
2022/08/09 11:18:45;;;;;;;3.03;2.30;;;22.90;81.60;;;;;;6305246;27;82120;-62
2022/08/09 11:21:57;;;;;;;4.88;2.65;;;22.90;81.50;;;;;;6296552;27;82332;-62
2022/08/09 11:25:06;;;;;;;3.20;2.50;;;22.90;81.60;;;;;;6295691;27;82196;-63
2022/08/09 11:28:44;;;;;;;3.28;2.40;;;22.90;80.80;;;;;;6304411;27;82280;-62
2022/08/09 11:31:48;;;;;;;2.67;2.22;;;22.90;81.10;;;;;;6296872;27;82817;-63
2022/08/09 11:34:52;;;;;;;3.38;2.40;;;22.90;80.00;;;;;;6304070;27;81578;-62
2022/08/09 11:37:58;;;;;;;3.42;2.15;;;23.00;80.30;;;;;;6304571;27;82600;-62
2022/08/09 11:41:04;;;;;;;2.95;2.08;;;23.00;80.30;;;;;;6302365;27;82569;-63
2022/08/09 11:44:06;;;;;;;2.42;2.20;;;22.90;81.20;;;;;;6305350;27;81274;-62
2022/08/09 11:47:09;;;;;;;2.80;2.28;;;23.00;82.00;;;;;;6291077;27;81166;-62
2022/08/09 11:50:11;;;;;;;3.75;2.45;;;22.90;82.50;;;;;;6295644;27;82462;-63
2022/08/09 11:53:20;;;;;;;3.05;2.00;;;23.00;80.60;;;;;;6282773;27;82292;-62
2022/08/09 11:56:26;;;;;;;3.05;2.20;;;23.00;80.00;;;;;;6286595;27;82304;-62
2022/08/09 11:59:29;;;;;;;2.92;2.20;;;23.00;80.30;;;;;;6282283;27;81508;-62
2022/08/09 12:02:32;;;;;;;3.58;2.20;;;23.00;79.30;;;;;;6287443;27;82262;-62
2022/08/09 12:05:35;;;;;;;4.82;2.67;;;23.00;80.60;;;;;;6286543;27;82353;-63
2022/08/09 12:08:37;;;;;;;2.97;2.17;;;23.00;80.30;;;;;;6286778;27;82638;-63
2022/08/09 12:11:40;;;;;;;3.70;2.05;;;23.00;79.40;;;;;;6287550;27;82327;-62
2022/08/09 12:14:42;;;;;;;2.63;2.30;;;23.00;79.60;;;;;;6285467;27;82145;-62
2022/08/09 12:17:48;;;;;;;3.08;2.30;;;23.00;79.40;;;;;;6286535;27;82392;-62
2022/08/09 12:20:50;;;;;;;3.50;2.08;;;23.00;80.30;;;;;;6286910;27;82468;-63
2022/08/09 12:23:52;;;;;;;2.28;2.08;;;23.00;79.50;;;;;;6282940;27;82306;-62
2022/08/09 12:26:57;;;;;;;2.70;2.22;;;23.00;79.10;;;;;;6277167;27;82286;-62
2022/08/09 12:29:59;;;;;;;2.72;2.38;;;23.00;79.80;;;;;;6279465;27;82042;-62
2022/08/09 12:33:03;;;;;;;2.47;2.20;;;23.10;80.40;;;;;;6282490;27;81554;-62
2022/08/09 12:36:06;;;;;;;2.17;1.98;;;23.00;79.30;;;;;;6285668;27;82218;-62
2022/08/09 12:39:14;;;;;;;3.63;2.35;;;23.00;79.70;;;;;;6281526;27;82302;-63
2022/08/09 12:42:16;;;;;;;2.30;2.05;;;23.10;79.60;;;;;;6278291;27;82273;-63
2022/08/09 12:45:19;;;;;;;3.30;2.38;;;23.10;80.40;;;;;;6286596;27;82741;-63
2022/08/09 12:48:23;;;;;;;2.70;2.13;;;23.10;80.50;;;;;;6277665;27;81998;-63
2022/08/09 12:51:25;;;;;;;3.55;2.30;;;23.10;80.10;;;;;;6275081;27;82000;-62
2022/08/09 12:54:28;;;;;;;2.90;1.83;;;23.10;79.60;;;;;;6282999;27;82443;-63
2022/08/09 12:57:41;;;;;;;2.22;2.03;;;23.10;79.90;;;;;;6285894;27;82090;-62
2022/08/09 13:00:46;;;;;;;2.53;2.15;;;23.10;80.60;;;;;;6286807;27;82723;-63
2022/08/09 13:03:58;;;;;;;3.28;2.13;;;23.10;81.10;;;;;;6285778;27;82040;-62
2022/08/09 13:07:10;;;;;;;2.90;2.00;;;23.10;80.50;;;;;;6285764;27;82230;-63
2022/08/09 13:10:12;;;;;;;2.40;2.08;;;23.10;80.10;;;;;;6284946;27;82330;-62
2022/08/09 13:13:15;;;;;;;3.05;1.90;;;23.10;80.90;;;;;;6276216;27;81866;-62
2022/08/09 13:16:17;;;;;;;3.83;2.45;;;23.10;80.60;;;;;;6262473;27;82337;-62
2022/08/09 13:19:28;;;;;;;3.38;2.90;;;23.10;80.20;;;;;;6280761;27;82283;-63
2022/08/09 13:22:30;;;;;;;3.53;2.83;;;23.10;79.80;;;;;;6285220;27;82427;-63
2022/08/09 13:25:39;;;;;;;3.78;2.80;;;23.10;80.10;;;;;;6281154;27;82504;-63
2022/08/09 13:28:41;;;;;;;3.72;2.65;;;23.10;80.70;;;;;;6276701;27;82178;-63
2022/08/09 13:32:05;;;;;;;4.18;2.55;;;23.10;80.80;;;;;;6285581;27;82389;-63
2022/08/09 13:35:10;;;;;;;3.97;2.33;;;23.10;80.00;;;;;;6282184;27;82485;-63
2022/08/09 13:38:12;;;;;;;3.55;2.67;;;23.10;79.80;;;;;;6280004;27;83153;-62
2022/08/09 13:41:20;;;;;;;2.95;2.58;;;23.10;80.80;;;;;;6277107;27;82545;-63
2022/08/09 13:44:22;;;;;;;3.05;2.55;;;23.10;80.30;;;;;;6285112;27;82293;-62
2022/08/09 13:47:24;;;;;;;3.15;2.47;;;23.10;80.50;;;;;;6279853;27;82335;-62
2022/08/09 13:50:28;;;;;;;3.13;2.53;;;23.10;80.60;;;;;;6284035;27;82301;-63
2022/08/09 13:53:30;;;;;;;2.95;2.40;;;23.10;80.80;;;;;;6284479;27;82310;-63
2022/08/09 13:56:32;;;;;;;3.33;2.33;;;23.10;81.00;;;;;;6284683;27;82264;-62
2022/08/09 13:59:34;;;;;;;4.68;2.50;;;23.10;81.00;;;;;;6284340;27;82332;-63
2022/08/09 14:02:36;;;;;;;3.22;2.70;;;23.20;80.90;;;;;;6286395;27;82336;-63
2022/08/09 14:05:39;;;;;;;4.40;2.78;;;23.20;80.60;;;;;;6284414;27;82701;-63
2022/08/09 14:08:42;;;;;;;5.05;2.95;;;23.20;81.00;;;;;;6284424;27;82628;-62
2022/08/09 14:11:43;;;;;;;2.97;2.65;;;23.30;81.30;;;;;;6285464;27;82919;-62
2022/08/09 14:14:45;;;;;;;3.22;2.58;;;23.20;81.30;;;;;;6282909;27;82698;-63
2022/08/09 14:17:47;;;;;;;2.83;2.30;;;23.20;81.40;;;;;;6282201;27;82377;-62
2022/08/09 14:20:51;;;;;;;2.45;2.25;;;23.30;82.00;;;;;;6279781;27;82576;-63
2022/08/09 14:23:54;;;;;;;2.88;2.40;;;23.20;82.70;;;;;;6278891;27;81041;-63
2022/08/09 14:26:56;;;;;;;3.00;2.70;;;23.30;82.50;;;;;;6283759;27;82244;-63
2022/08/09 14:29:58;;;;;;;3.35;2.40;;;23.30;81.60;;;;;;6284590;27;82715;-63
2022/08/09 14:33:00;;;;;;;3.83;2.40;;;23.30;81.00;;;;;;6282734;27;82409;-63
2022/08/09 14:36:04;;;;;;;4.15;2.40;;;23.30;80.60;;;;;;6285104;27;82419;-63
2022/08/09 14:39:06;;;;;;;4.45;2.40;;;23.30;81.10;;;;;;6273538;27;83192;-64
2022/08/09 14:42:08;;;;;;;5.97;2.55;;;23.20;81.40;;;;;;6278274;27;81998;-63
2022/08/09 14:45:12;;;;;;;4.93;2.80;;;23.30;82.30;;;;;;6280207;27;82462;-63
2022/08/09 14:48:14;;;;;;;3.30;2.75;;;23.30;81.60;;;;;;6283359;27;82643;-63
2022/08/09 14:51:17;;;;;;;3.88;3.08;;;23.30;81.30;;;;;;6279563;27;82267;-63
2022/08/09 14:54:19;;;;;;;3.22;2.90;;;23.30;81.00;;;;;;6272476;27;82294;-63
2022/08/09 14:57:21;;;;;;;4.13;3.33;;;23.30;81.20;;;;;;6283780;27;82377;-63
2022/08/09 15:00:23;;;;;;;4.53;2.83;;;23.20;81.10;;;;;;6284580;27;81324;-63
2022/08/09 15:03:26;;;;;;;4.15;2.88;;;23.30;81.50;;;;;;6283618;27;82589;-63
2022/08/09 15:06:29;;;;;;;4.38;2.90;;;23.30;81.50;;;;;;6283689;27;82279;-63
2022/08/09 15:09:31;;;;;;;4.63;3.05;;;23.30;82.20;;;;;;6278951;27;81258;-63
2022/08/09 15:12:33;;;;;;;4.57;2.75;;;23.30;82.20;;;;;;6283450;27;81862;-63
2022/08/09 15:15:36;;;;;;;3.20;2.88;;;23.30;83.00;;;;;;6279317;27;81589;-63
2022/08/09 15:18:38;;;;;;;3.00;2.70;;;23.30;82.70;;;;;;6274091;27;81633;-62
2022/08/09 15:21:41;;;;;;;3.97;3.30;;;23.30;83.60;;;;;;6283037;27;82234;-62
2022/08/09 15:24:44;;;;;;;3.28;2.97;;;23.30;83.40;;;;;;6284564;27;81800;-62
2022/08/09 15:27:46;;;;;;;3.72;2.80;;;23.30;82.80;;;;;;6285826;27;82338;-63
2022/08/09 15:30:48;;;;;;;3.60;3.05;;;23.30;82.50;;;;;;6285883;27;81318;-62
2022/08/09 15:33:50;;;;;;;4.03;3.05;;;23.30;82.90;;;;;;6283568;27;82721;-63
2022/08/09 15:36:54;;;;;;;4.32;3.15;;;23.30;81.90;;;;;;6282986;27;82306;-62
2022/08/09 15:39:56;;;;;;;3.85;3.33;;;23.30;81.80;;;;;;6278684;27;82377;-62
2022/08/09 15:42:58;;;;;;;4.68;3.28;;;23.30;81.80;;;;;;6287283;27;82315;-63
2022/08/09 15:46:00;;;;;;;3.88;2.72;;;23.30;81.60;;;;;;6286833;27;82362;-62
2022/08/09 15:49:03;;;;;;;3.58;3.20;;;23.30;82.00;;;;;;6286003;27;84092;-63
2022/08/09 15:52:06;;;;;;;3.75;2.80;;;23.40;82.20;;;;;;6284582;27;83263;-63
2022/08/09 15:55:11;;;;;;;4.20;3.08;;;23.40;82.30;;;;;;6285920;27;82582;-63
2022/08/09 15:58:13;;;;;;;3.40;3.10;;;23.30;82.30;;;;;;6285887;27;84031;-63
2022/08/09 16:01:15;;;;;;;5.43;3.17;;;23.30;82.80;;;;;;6285835;27;85027;-63
2022/08/09 16:04:17;;;;;;;3.58;3.10;;;23.30;82.70;;;;;;6286005;27;83986;-63